createdAt,value
2022-09-28T00:02:09.627Z,3.9
2022-09-28T00:09:41.986Z,3.9
2022-09-28T00:17:14.258Z,3.9
2022-09-28T00:24:46.535Z,3.9
2022-09-28T00:32:18.803Z,3.9
2022-09-28T00:39:51.080Z,3.9
2022-09-28T00:47:23.341Z,3.9
2022-09-28T00:54:55.599Z,3.9
2022-09-28T01:02:27.925Z,3.9
2022-09-28T01:10:00.261Z,3.9
2022-09-28T01:17:32.525Z,3.9
2022-09-28T01:25:04.790Z,3.9
2022-09-28T01:32:37.066Z,3.9
2022-09-28T01:40:09.329Z,3.9
2022-09-28T01:47:41.593Z,3.9
2022-09-28T01:55:13.870Z,3.9
2022-09-28T02:02:46.135Z,3.9
2022-09-28T02:10:18.405Z,3.9
2022-09-28T02:17:50.669Z,3.9
2022-09-28T02:25:22.938Z,3.9
2022-09-28T02:32:55.204Z,3.9
2022-09-28T02:40:27.521Z,3.9
2022-09-28T02:47:59.885Z,3.9
2022-09-28T02:55:32.153Z,3.9
2022-09-28T03:03:04.424Z,3.9
2022-09-28T03:10:36.698Z,3.9
2022-09-28T03:18:08.956Z,3.9
2022-09-28T03:25:41.228Z,3.9
2022-09-28T03:33:13.497Z,3.9
2022-09-28T03:40:45.799Z,3.9
2022-09-28T03:48:21.773Z,3.9
2022-09-28T03:55:56.721Z,3.9
2022-09-28T04:03:29.237Z,3.9
2022-09-28T04:11:01.500Z,3.9
2022-09-28T04:18:33.766Z,3.9
2022-09-28T04:19:35.984Z,59.8
2022-09-28T04:20:23.245Z,58.2
2022-09-28T04:21:10.537Z,57.5
2022-09-28T04:21:57.792Z,57.2
2022-09-28T04:22:45.068Z,57.5
2022-09-28T04:23:32.452Z,57.6
2022-09-28T04:24:19.714Z,57.5
2022-09-28T04:25:06.972Z,57.5
2022-09-28T04:25:54.274Z,57.1
2022-09-28T04:26:41.553Z,57.1
2022-09-28T04:27:28.904Z,57.2
2022-09-28T04:28:16.164Z,57.1
2022-09-28T04:29:06.548Z,57.5
2022-09-28T04:29:54.242Z,57.4
2022-09-28T04:30:41.577Z,57.4
2022-09-28T04:31:28.998Z,57.5
2022-09-28T04:32:16.319Z,57.0
2022-09-28T04:33:03.756Z,57.2
2022-09-28T04:33:51.018Z,59.5
2022-09-28T04:34:43.187Z,59.2
2022-09-28T04:35:31.305Z,62.1
2022-09-28T04:36:18.753Z,61.8
2022-09-28T04:37:06.021Z,61.0
2022-09-28T04:37:53.319Z,61.4
2022-09-28T04:38:56.040Z,61.6
2022-09-28T04:39:37.993Z,62.0
2022-09-28T04:40:25.417Z,61.3
2022-09-28T04:41:12.701Z,62.3
2022-09-28T04:41:59.973Z,62.1
2022-09-28T04:42:47.369Z,62.2
2022-09-28T04:43:34.641Z,61.9
2022-09-28T04:44:21.903Z,62.1
2022-09-28T04:45:09.308Z,62.2
2022-09-28T04:45:56.596Z,62.0
2022-09-28T04:46:43.889Z,62.0
2022-09-28T04:47:31.280Z,61.7
2022-09-28T04:48:18.537Z,61.6
2022-09-28T04:49:05.799Z,62.1
2022-09-28T04:49:53.237Z,61.9
2022-09-28T04:50:40.556Z,62.0
2022-09-28T04:51:27.843Z,61.8
2022-09-28T04:52:18.269Z,62.5
2022-09-28T04:53:05.991Z,61.9
2022-09-28T04:53:53.324Z,62.1
2022-09-28T04:54:40.762Z,61.6
2022-09-28T04:55:28.048Z,62.1
2022-09-28T04:56:15.450Z,62.4
2022-09-28T04:57:02.733Z,62.0
2022-09-28T04:57:50.202Z,62.1
2022-09-28T04:58:37.488Z,61.9
2022-09-28T04:59:24.778Z,61.6
2022-09-28T05:00:12.071Z,61.5
2022-09-28T05:00:59.925Z,61.1
2022-09-28T05:01:47.494Z,62.2
2022-09-28T05:02:34.835Z,62.1
2022-09-28T05:03:22.188Z,61.6
2022-09-28T05:04:09.570Z,62.3
2022-09-28T05:04:56.871Z,61.7
2022-09-28T05:05:44.311Z,61.3
2022-09-28T05:06:31.598Z,62.6
2022-09-28T05:07:18.881Z,61.7
2022-09-28T05:08:06.177Z,62.1
2022-09-28T05:08:53.589Z,62.3
2022-09-28T05:09:40.883Z,62.3
2022-09-28T05:10:28.158Z,62.4
2022-09-28T05:11:15.592Z,62.5
2022-09-28T05:12:02.908Z,62.1
2022-09-28T05:12:50.203Z,62.1
2022-09-28T05:13:37.621Z,62.6
2022-09-28T05:14:24.898Z,62.3
2022-09-28T05:15:12.327Z,62.5
2022-09-28T05:16:04.382Z,62.5
2022-09-28T05:16:52.667Z,62.4
2022-09-28T05:17:40.029Z,62.4
2022-09-28T05:18:27.539Z,62.4
2022-09-28T05:19:14.991Z,62.2
2022-09-28T05:20:02.401Z,62.6
2022-09-28T05:20:49.687Z,62.3
2022-09-28T05:21:36.964Z,62.1
2022-09-28T05:22:24.375Z,63.0
2022-09-28T05:23:11.659Z,62.2
2022-09-28T05:23:58.953Z,62.4
2022-09-28T05:24:46.359Z,57.9
2022-09-28T05:25:33.663Z,58.1
2022-09-28T05:26:20.951Z,58.0
2022-09-28T05:27:08.369Z,57.8
2022-09-28T05:27:55.668Z,58.1
2022-09-28T05:28:42.949Z,57.9
2022-09-28T05:29:32.460Z,57.5
2022-09-28T05:30:20.040Z,57.8
2022-09-28T05:31:07.355Z,57.6
2022-09-28T05:31:54.738Z,57.9
2022-09-28T05:32:42.085Z,58.2
2022-09-28T05:33:29.508Z,58.0
2022-09-28T05:34:16.797Z,57.8
2022-09-28T05:35:04.078Z,57.9
2022-09-28T05:35:55.118Z,57.9
2022-09-28T05:36:44.200Z,57.7
2022-09-28T05:37:31.599Z,58.3
2022-09-28T05:38:18.888Z,57.9
2022-09-28T05:39:06.162Z,58.4
2022-09-28T05:39:53.569Z,58.3
2022-09-28T05:40:40.907Z,57.6
2022-09-28T05:41:28.230Z,58.1
2022-09-28T05:42:15.628Z,58.1
2022-09-28T05:43:02.911Z,58.2
2022-09-28T05:43:50.195Z,58.5
2022-09-28T05:44:37.612Z,57.9
2022-09-28T05:45:24.899Z,57.3
2022-09-28T05:46:12.259Z,58.1
2022-09-28T05:46:59.605Z,58.2
2022-09-28T05:47:46.894Z,58.0
2022-09-28T05:48:34.191Z,58.2
2022-09-28T05:49:21.605Z,61.8
2022-09-28T05:50:08.903Z,62.4
2022-09-28T05:50:56.183Z,61.7
2022-09-28T05:51:43.602Z,61.6
2022-09-28T05:52:30.940Z,62.2
2022-09-28T05:53:18.224Z,62.2
2022-09-28T05:54:06.342Z,61.9
2022-09-28T05:54:53.993Z,62.0
2022-09-28T05:55:41.279Z,61.2
2022-09-28T05:56:28.563Z,62.4
2022-09-28T05:57:15.991Z,62.3
2022-09-28T05:58:03.279Z,62.1
2022-09-28T05:58:50.583Z,61.8
2022-09-28T05:59:37.999Z,62.3
2022-09-28T06:00:25.299Z,62.3
2022-09-28T06:01:12.637Z,62.4
2022-09-28T06:02:00.016Z,62.5
2022-09-28T06:02:47.382Z,62.3
2022-09-28T06:03:34.720Z,62.1
2022-09-28T06:04:22.134Z,62.3
2022-09-28T06:05:09.449Z,62.4
2022-09-28T06:05:56.747Z,62.3
2022-09-28T06:06:44.152Z,62.8
2022-09-28T06:07:31.450Z,62.2
2022-09-28T06:08:18.734Z,61.6
2022-09-28T06:09:06.131Z,62.1
2022-09-28T06:09:53.419Z,63.0
2022-09-28T06:10:40.703Z,62.1
2022-09-28T06:11:28.114Z,62.5
2022-09-28T06:12:15.391Z,62.8
2022-09-28T06:13:02.678Z,62.4
2022-09-28T06:13:50.080Z,62.0
2022-09-28T06:14:37.389Z,62.7
2022-09-28T06:15:24.671Z,62.4
2022-09-28T06:16:12.248Z,62.6
2022-09-28T06:16:59.582Z,62.2
2022-09-28T06:17:47.017Z,62.3
2022-09-28T06:18:34.304Z,62.8
2022-09-28T06:19:21.582Z,62.1
2022-09-28T06:20:08.877Z,61.9
2022-09-28T06:20:56.275Z,62.2
2022-09-28T06:21:43.719Z,62.7
2022-09-28T06:22:31.015Z,62.5
2022-09-28T06:23:18.414Z,62.5
2022-09-28T06:24:05.698Z,62.6
2022-09-28T06:24:52.982Z,62.5
2022-09-28T06:25:40.401Z,62.2
2022-09-28T06:26:27.698Z,62.3
2022-09-28T06:27:14.992Z,61.7
2022-09-28T06:28:02.421Z,61.8
2022-09-28T06:28:49.720Z,62.3
2022-09-28T06:29:37.215Z,62.1
2022-09-28T06:30:24.524Z,62.3
2022-09-28T06:31:11.873Z,62.2
2022-09-28T06:31:59.239Z,61.9
2022-09-28T06:32:46.656Z,62.2
2022-09-28T06:33:33.955Z,62.4
2022-09-28T06:34:21.238Z,62.3
2022-09-28T06:35:08.787Z,62.3
2022-09-28T06:35:56.079Z,62.3
2022-09-28T06:36:43.374Z,62.6
2022-09-28T06:37:30.752Z,62.4
2022-09-28T06:38:18.030Z,62.7
2022-09-28T06:39:05.373Z,62.1
2022-09-28T06:39:53.009Z,62.4
2022-09-28T06:40:40.366Z,62.4
2022-09-28T06:41:27.743Z,62.2
2022-09-28T06:42:15.155Z,62.5
2022-09-28T06:43:02.439Z,62.2
2022-09-28T06:43:49.725Z,61.7
2022-09-28T06:44:37.136Z,62.5
2022-09-28T06:45:24.418Z,62.3
2022-09-28T06:46:11.756Z,62.3
2022-09-28T06:46:59.123Z,62.0
2022-09-28T06:47:46.424Z,62.3
2022-09-28T06:48:33.716Z,62.1
2022-09-28T06:49:21.107Z,62.4
2022-09-28T06:50:08.386Z,62.2
2022-09-28T06:50:55.666Z,62.2
2022-09-28T06:51:43.100Z,62.3
2022-09-28T06:52:30.382Z,61.9
2022-09-28T06:53:17.655Z,61.8
2022-09-28T06:54:05.093Z,62.0
2022-09-28T06:54:52.373Z,61.8
2022-09-28T06:55:39.669Z,62.2
2022-09-28T06:56:31.987Z,62.1
2022-09-28T06:57:20.098Z,62.2
2022-09-28T06:58:07.532Z,61.9
2022-09-28T06:58:54.828Z,61.9
2022-09-28T06:59:42.423Z,61.6
2022-09-28T07:00:29.729Z,61.8
2022-09-28T07:01:17.065Z,61.2
2022-09-28T07:02:04.449Z,61.8
2022-09-28T07:02:51.835Z,60.9
2022-09-28T07:03:39.153Z,62.3
2022-09-28T07:04:26.449Z,61.8
2022-09-28T07:05:13.859Z,61.9
2022-09-28T07:06:01.147Z,61.8
2022-09-28T07:06:48.630Z,61.8
2022-09-28T07:07:35.923Z,61.8
2022-09-28T07:08:23.209Z,61.6
2022-09-28T07:09:26.811Z,61.6
2022-09-28T07:10:07.769Z,62.0
2022-09-28T07:10:55.199Z,61.6
2022-09-28T07:11:42.491Z,61.8
2022-09-28T07:12:29.784Z,61.6
2022-09-28T07:13:43.789Z,61.7
2022-09-28T07:14:29.151Z,61.5
2022-09-28T07:15:11.756Z,61.9
2022-09-28T07:15:59.163Z,61.4
2022-09-28T07:17:10.339Z,61.5
2022-09-28T07:17:59.391Z,60.3
2022-09-28T07:18:41.002Z,61.6
2022-09-28T07:19:28.405Z,61.5
2022-09-28T07:20:19.054Z,61.0
2022-09-28T07:21:07.419Z,61.7
2022-09-28T07:22:04.039Z,61.7
2022-09-28T07:22:52.331Z,61.1
2022-09-28T07:23:51.117Z,61.4
2022-09-28T07:24:37.013Z,61.8
2022-09-28T07:25:24.407Z,61.0
2022-09-28T07:26:11.697Z,61.4
2022-09-28T07:26:58.977Z,61.7
2022-09-28T07:27:46.410Z,61.7
2022-09-28T07:28:33.872Z,61.1
2022-09-28T07:29:21.162Z,61.3
2022-09-28T07:30:08.652Z,61.1
2022-09-28T07:30:56.178Z,61.6
2022-09-28T07:31:43.567Z,61.2
2022-09-28T07:33:23.190Z,61.1
2022-09-28T07:34:10.624Z,61.5
2022-09-28T07:34:59.485Z,61.2
2022-09-28T07:35:46.767Z,61.3
2022-09-28T07:36:34.218Z,60.9
2022-09-28T07:37:21.491Z,61.6
2022-09-28T07:38:08.787Z,61.5
2022-09-28T07:38:56.202Z,61.1
2022-09-28T07:39:43.483Z,61.4
2022-09-28T07:40:31.264Z,61.8
2022-09-28T07:41:18.612Z,61.0
2022-09-28T07:42:05.942Z,61.5
2022-09-28T07:42:53.268Z,61.3
2022-09-28T07:43:40.557Z,62.0
2022-09-28T07:44:27.859Z,62.5
2022-09-28T07:45:15.139Z,62.8
2022-09-28T07:46:02.529Z,63.0
2022-09-28T07:46:49.871Z,63.4
2022-09-28T07:47:37.162Z,63.6
2022-09-28T07:48:24.463Z,63.8
2022-09-28T07:49:12.540Z,63.9
2022-09-28T07:49:59.899Z,63.7
2022-09-28T07:50:47.192Z,64.1
2022-09-28T07:51:34.476Z,63.5
2022-09-28T07:52:21.759Z,64.0
2022-09-28T07:53:09.048Z,63.7
2022-09-28T07:53:56.332Z,63.7
2022-09-28T07:54:43.630Z,64.9
2022-09-28T07:55:31.215Z,64.2
2022-09-28T07:56:18.488Z,64.6
2022-09-28T07:57:05.779Z,64.8
2022-09-28T07:57:53.101Z,64.3
2022-09-28T07:58:40.394Z,64.6
2022-09-28T07:59:27.677Z,64.9
2022-09-28T08:00:14.991Z,64.8
2022-09-28T08:01:02.356Z,65.0
2022-09-28T08:01:49.654Z,64.9
2022-09-28T08:02:37.063Z,64.9
2022-09-28T08:03:24.813Z,64.8
2022-09-28T08:04:12.091Z,65.6
2022-09-28T08:04:59.523Z,65.4
2022-09-28T08:05:46.911Z,65.7
2022-09-28T08:06:34.241Z,65.4
2022-09-28T08:07:23.854Z,65.4
2022-09-28T08:08:11.637Z,65.6
2022-09-28T08:08:58.927Z,65.6
2022-09-28T08:09:46.368Z,65.4
2022-09-28T08:10:33.742Z,65.4
2022-09-28T08:11:21.099Z,65.3
2022-09-28T08:12:08.387Z,65.5
2022-09-28T08:12:58.126Z,65.8
2022-09-28T08:13:48.000Z,66.0
2022-09-28T08:14:35.298Z,66.0
2022-09-28T08:15:22.584Z,66.1
2022-09-28T08:16:09.861Z,66.2
2022-09-28T08:16:57.711Z,65.9
2022-09-28T08:17:44.991Z,66.0
2022-09-28T08:18:32.279Z,66.2
2022-09-28T08:19:19.653Z,66.1
2022-09-28T08:20:06.991Z,65.8
2022-09-28T08:20:54.271Z,66.3
2022-09-28T08:21:41.583Z,66.2
2022-09-28T08:22:28.892Z,66.3
2022-09-28T08:23:16.185Z,66.2
2022-09-28T08:24:03.484Z,66.6
2022-09-28T08:24:50.788Z,66.4
2022-09-28T08:25:38.071Z,66.2
2022-09-28T08:26:25.385Z,66.5
2022-09-28T08:27:12.690Z,66.7
2022-09-28T08:28:00.021Z,65.8
2022-09-28T08:28:47.323Z,66.8
2022-09-28T08:29:34.614Z,66.8
2022-09-28T08:30:21.924Z,66.4
2022-09-28T08:31:09.364Z,66.6
2022-09-28T08:32:01.268Z,65.7
2022-09-28T08:32:48.890Z,66.4
2022-09-28T08:33:36.209Z,66.5
2022-09-28T08:34:23.504Z,66.6
2022-09-28T08:35:10.801Z,66.8
2022-09-28T08:35:58.229Z,67.0
2022-09-28T08:36:45.536Z,66.5
2022-09-28T08:37:32.840Z,66.8
2022-09-28T08:38:20.224Z,66.3
2022-09-28T08:39:07.527Z,66.4
2022-09-28T08:39:54.823Z,67.2
2022-09-28T08:40:42.275Z,66.7
2022-09-28T08:41:29.582Z,66.7
2022-09-28T08:42:16.880Z,67.1
2022-09-28T08:43:04.279Z,67.3
2022-09-28T08:43:51.592Z,66.8
2022-09-28T08:44:38.981Z,67.2
2022-09-28T08:45:26.280Z,66.2
2022-09-28T08:46:13.625Z,67.1
2022-09-28T08:47:00.959Z,66.9
2022-09-28T08:47:48.368Z,66.6
2022-09-28T08:48:35.732Z,65.4
2022-09-28T08:49:26.567Z,67.2
2022-09-28T08:50:14.024Z,65.9
2022-09-28T08:51:01.434Z,65.7
2022-09-28T08:51:48.927Z,66.1
2022-09-28T08:52:36.223Z,66.5
2022-09-28T08:53:23.627Z,66.2
2022-09-28T08:54:12.001Z,66.2
2022-09-28T08:54:59.479Z,66.2
2022-09-28T08:55:46.899Z,66.4
2022-09-28T08:56:34.200Z,66.5
2022-09-28T08:57:21.491Z,66.0
2022-09-28T08:58:08.939Z,67.5
2022-09-28T08:58:56.235Z,65.7
2022-09-28T08:59:43.527Z,66.9
2022-09-28T09:00:30.960Z,67.4
2022-09-28T09:01:18.281Z,66.7
2022-09-28T09:02:05.708Z,66.4
2022-09-28T09:02:53.125Z,66.9
2022-09-28T09:03:40.479Z,67.3
2022-09-28T09:04:27.765Z,66.8
2022-09-28T09:05:15.188Z,66.4
2022-09-28T09:06:02.472Z,66.5
2022-09-28T09:06:49.758Z,66.5
2022-09-28T09:07:37.188Z,66.4
2022-09-28T09:08:24.492Z,66.7
2022-09-28T09:09:11.787Z,66.4
2022-09-28T09:09:59.236Z,66.3
2022-09-28T09:10:46.560Z,65.6
2022-09-28T09:11:33.914Z,66.4
2022-09-28T09:12:21.239Z,65.8
2022-09-28T09:13:08.773Z,66.8
2022-09-28T09:13:56.071Z,66.6
2022-09-28T09:14:43.489Z,66.6
2022-09-28T09:15:30.784Z,66.2
2022-09-28T09:16:18.127Z,65.1
2022-09-28T09:17:05.556Z,66.0
2022-09-28T09:17:52.874Z,66.6
2022-09-28T09:18:40.177Z,66.0
2022-09-28T09:19:27.550Z,65.4
2022-09-28T09:20:14.836Z,66.3
2022-09-28T09:21:02.127Z,65.8
2022-09-28T09:21:49.532Z,65.5
2022-09-28T09:22:36.839Z,65.1
2022-09-28T09:23:24.409Z,66.9
2022-09-28T09:24:11.744Z,66.2
2022-09-28T09:24:59.057Z,66.6
2022-09-28T09:25:46.499Z,66.9
2022-09-28T09:26:33.783Z,66.7
2022-09-28T09:27:21.074Z,65.0
2022-09-28T09:28:08.379Z,66.2
2022-09-28T09:28:55.794Z,66.5
2022-09-28T09:29:43.070Z,66.0
2022-09-28T09:30:31.715Z,66.4
2022-09-28T09:31:22.579Z,66.5
2022-09-28T09:32:10.215Z,66.2
2022-09-28T09:32:57.548Z,66.6
2022-09-28T09:33:44.849Z,66.4
2022-09-28T09:34:32.172Z,66.6
2022-09-28T09:35:21.831Z,66.9
2022-09-28T09:36:10.839Z,66.3
2022-09-28T09:36:58.120Z,66.5
2022-09-28T09:37:45.564Z,66.2
2022-09-28T09:38:32.840Z,66.3
2022-09-28T09:39:20.260Z,66.0
2022-09-28T09:40:07.601Z,66.3
2022-09-28T09:40:55.042Z,65.9
2022-09-28T09:41:42.403Z,65.8
2022-09-28T09:42:29.925Z,65.8
2022-09-28T09:43:17.318Z,65.3
2022-09-28T09:44:04.741Z,66.6
2022-09-28T09:44:52.028Z,66.9
2022-09-28T09:45:39.374Z,66.1
2022-09-28T09:46:26.762Z,66.5
2022-09-28T09:47:14.064Z,66.4
2022-09-28T09:48:01.350Z,66.3
2022-09-28T09:48:48.800Z,66.0
2022-09-28T09:49:36.115Z,66.3
2022-09-28T09:50:23.412Z,66.5
2022-09-28T09:51:10.869Z,66.1
2022-09-28T09:51:58.170Z,66.5
2022-09-28T09:52:45.449Z,66.0
2022-09-28T09:53:37.620Z,66.0
2022-09-28T09:54:25.860Z,65.7
2022-09-28T09:55:13.741Z,65.9
2022-09-28T09:56:01.272Z,65.5
2022-09-28T09:56:48.564Z,65.8
2022-09-28T09:57:35.845Z,66.7
2022-09-28T09:58:23.144Z,66.2
2022-09-28T09:59:10.523Z,66.0
2022-09-28T09:59:57.845Z,66.0
2022-09-28T10:00:45.239Z,65.8
2022-09-28T10:01:32.591Z,65.3
2022-09-28T10:02:19.978Z,65.8
2022-09-28T10:03:07.515Z,65.9
2022-09-28T10:03:54.826Z,65.8
2022-09-28T10:04:42.127Z,66.0
2022-09-28T10:05:29.552Z,66.0
2022-09-28T10:06:16.989Z,66.2
2022-09-28T10:07:04.282Z,65.8
2022-09-28T10:07:51.750Z,65.9
2022-09-28T10:08:39.040Z,66.4
2022-09-28T10:09:26.326Z,65.7
2022-09-28T10:10:13.764Z,65.9
2022-09-28T10:11:01.124Z,65.8
2022-09-28T10:18:33.571Z,9.4
2022-09-28T10:26:05.855Z,9.4
2022-09-28T10:33:38.184Z,9.9
2022-09-28T10:41:10.495Z,10.0
2022-09-28T10:48:42.910Z,10.3
2022-09-28T10:54:55.188Z,68.1
2022-09-28T10:55:42.507Z,66.5
2022-09-28T10:56:29.796Z,66.5
2022-09-28T10:57:17.084Z,66.3
2022-09-28T10:58:04.376Z,65.0
2022-09-28T10:58:51.667Z,66.6
2022-09-28T10:59:38.977Z,60.5
2022-09-28T11:00:26.264Z,61.3
2022-09-28T11:01:13.665Z,66.4
2022-09-28T11:02:01.069Z,66.2
2022-09-28T11:02:48.394Z,66.2
2022-09-28T11:03:35.755Z,66.7
2022-09-28T11:04:23.048Z,66.0
2022-09-28T11:05:10.514Z,66.0
2022-09-28T11:05:57.800Z,65.7
2022-09-28T11:06:45.094Z,66.0
2022-09-28T11:07:32.532Z,66.3
2022-09-28T11:08:19.819Z,65.6
2022-09-28T11:09:07.109Z,64.9
2022-09-28T11:09:54.566Z,66.3
2022-09-28T11:10:41.855Z,66.3
2022-09-28T11:11:29.146Z,65.9
2022-09-28T11:12:16.428Z,65.8
2022-09-28T11:13:03.710Z,65.9
2022-09-28T11:13:50.991Z,66.4
2022-09-28T11:14:42.082Z,66.0
2022-09-28T11:15:30.088Z,66.2
2022-09-28T11:16:17.491Z,66.1
2022-09-28T11:17:04.854Z,65.9
2022-09-28T11:17:52.212Z,66.0
2022-09-28T11:18:39.615Z,66.3
2022-09-28T11:19:26.927Z,66.1
2022-09-28T11:20:14.249Z,65.9
2022-09-28T11:21:01.652Z,66.0
2022-09-28T11:21:48.939Z,65.4
2022-09-28T11:22:36.210Z,66.5
2022-09-28T11:23:23.623Z,65.6
2022-09-28T11:24:14.392Z,66.0
2022-09-28T11:25:04.025Z,64.8
2022-09-28T11:25:51.432Z,65.7
2022-09-28T11:26:38.724Z,65.5
2022-09-28T11:27:26.027Z,65.4
2022-09-28T11:28:13.424Z,65.9
2022-09-28T11:29:00.703Z,66.2
2022-09-28T11:29:47.996Z,66.3
2022-09-28T11:30:35.465Z,66.1
2022-09-28T11:31:22.781Z,66.0
2022-09-28T11:32:14.923Z,66.1
2022-09-28T11:33:03.067Z,66.1
2022-09-28T11:33:50.668Z,66.4
2022-09-28T11:34:58.260Z,66.2
2022-09-28T11:35:35.213Z,65.9
2022-09-28T11:36:22.660Z,66.1
2022-09-28T11:37:09.942Z,66.1
2022-09-28T11:37:57.254Z,65.7
2022-09-28T11:38:44.665Z,65.9
2022-09-28T11:39:32.187Z,65.1
2022-09-28T11:40:19.508Z,65.4
2022-09-28T11:41:07.425Z,65.7
2022-09-28T11:41:54.906Z,66.3
2022-09-28T11:42:42.184Z,66.2
2022-09-28T11:43:29.521Z,66.4
2022-09-28T11:44:16.832Z,65.8
2022-09-28T11:45:04.118Z,66.4
2022-09-28T11:45:51.502Z,66.8
2022-09-28T11:46:38.827Z,65.6
2022-09-28T11:47:26.129Z,66.0
2022-09-28T11:48:13.427Z,66.4
2022-09-28T11:49:00.859Z,66.0
2022-09-28T11:49:48.149Z,66.4
2022-09-28T11:50:35.436Z,66.3
2022-09-28T11:51:22.863Z,65.7
2022-09-28T11:52:10.158Z,66.1
2022-09-28T11:52:57.450Z,65.3
2022-09-28T11:53:44.876Z,65.2
2022-09-28T11:54:32.172Z,65.8
2022-09-28T11:55:19.474Z,65.4
2022-09-28T11:56:09.097Z,65.8
2022-09-28T11:56:57.781Z,65.7
2022-09-28T11:57:45.298Z,66.0
2022-09-28T11:58:32.613Z,66.3
2022-09-28T11:59:19.913Z,66.0
2022-09-28T12:00:07.436Z,66.1
2022-09-28T12:00:54.722Z,66.3
2022-09-28T12:01:42.003Z,66.2
2022-09-28T12:02:29.369Z,66.2
2022-09-28T12:03:16.859Z,65.6
2022-09-28T12:04:04.276Z,65.7
2022-09-28T12:04:51.554Z,66.3
2022-09-28T12:05:38.881Z,65.6
2022-09-28T12:06:26.203Z,65.6
2022-09-28T12:07:13.493Z,66.1
2022-09-28T12:08:00.821Z,65.2
2022-09-28T12:08:48.116Z,66.3
2022-09-28T12:09:35.394Z,65.6
2022-09-28T12:10:22.731Z,65.9
2022-09-28T12:11:10.030Z,65.9
2022-09-28T12:11:57.344Z,65.9
2022-09-28T12:12:44.627Z,65.9
2022-09-28T12:13:31.905Z,66.0
2022-09-28T12:14:19.197Z,66.3
2022-09-28T12:15:06.539Z,66.0
2022-09-28T12:16:23.019Z,66.1
2022-09-28T12:17:05.901Z,66.0
2022-09-28T12:17:48.569Z,65.9
2022-09-28T12:18:35.890Z,66.2
2022-09-28T12:19:23.176Z,65.8
2022-09-28T12:20:10.465Z,66.0
2022-09-28T12:21:01.747Z,66.6
2022-09-28T12:21:50.319Z,66.4
2022-09-28T12:22:37.642Z,66.0
2022-09-28T12:23:24.932Z,66.1
2022-09-28T12:24:12.219Z,66.3
2022-09-28T12:24:59.662Z,66.3
2022-09-28T12:25:46.968Z,66.3
2022-09-28T12:26:37.268Z,66.0
2022-09-28T12:27:25.391Z,65.5
2022-09-28T12:28:12.810Z,66.1
2022-09-28T12:29:00.108Z,65.8
2022-09-28T12:29:47.871Z,66.3
2022-09-28T12:30:35.297Z,66.0
2022-09-28T12:31:22.890Z,66.4
2022-09-28T12:32:10.205Z,66.0
2022-09-28T12:32:57.716Z,66.1
2022-09-28T12:33:45.008Z,65.8
2022-09-28T12:34:32.297Z,65.8
2022-09-28T12:35:19.575Z,66.1
2022-09-28T12:36:07.007Z,65.6
2022-09-28T12:36:54.295Z,65.9
2022-09-28T12:37:41.584Z,66.3
2022-09-28T12:38:29.014Z,66.0
2022-09-28T12:39:30.821Z,65.7
2022-09-28T12:40:13.624Z,65.6
2022-09-28T12:41:00.997Z,65.3
2022-09-28T12:41:48.308Z,65.4
2022-09-28T12:42:35.600Z,65.6
2022-09-28T12:43:23.164Z,65.6
2022-09-28T12:44:10.448Z,65.8
2022-09-28T12:44:59.621Z,65.2
2022-09-28T12:46:10.025Z,65.4
2022-09-28T12:46:44.420Z,65.4
2022-09-28T12:47:32.049Z,65.7
2022-09-28T12:48:19.396Z,66.3
2022-09-28T12:50:01.839Z,65.9
2022-09-28T12:51:01.857Z,66.0
2022-09-28T12:51:49.378Z,65.9
2022-09-28T12:52:36.704Z,65.6
2022-09-28T12:53:24.036Z,66.1
2022-09-28T12:54:11.384Z,65.7
2022-09-28T12:54:58.729Z,65.9
2022-09-28T12:55:46.049Z,66.0
2022-09-28T12:56:33.429Z,65.9
2022-09-28T12:57:20.720Z,66.1
2022-09-28T12:58:08.048Z,66.1
2022-09-28T12:58:55.348Z,66.1
2022-09-28T12:59:42.631Z,65.8
2022-09-28T13:00:29.914Z,65.6
2022-09-28T13:01:17.307Z,66.0
2022-09-28T13:02:04.711Z,66.1
2022-09-28T13:02:52.097Z,66.3
2022-09-28T13:03:39.432Z,66.5
2022-09-28T13:04:26.731Z,66.1
2022-09-28T13:05:14.020Z,66.3
2022-09-28T13:06:01.441Z,66.0
2022-09-28T13:06:48.720Z,65.9
2022-09-28T13:07:36.063Z,65.6
2022-09-28T13:08:23.357Z,66.4
2022-09-28T13:09:10.882Z,66.3
2022-09-28T13:09:58.234Z,65.9
2022-09-28T13:10:45.551Z,65.8
2022-09-28T13:11:32.846Z,66.2
2022-09-28T13:12:20.125Z,65.8
2022-09-28T13:13:07.459Z,65.9
2022-09-28T13:13:54.761Z,65.5
2022-09-28T13:14:42.054Z,66.3
2022-09-28T13:15:29.429Z,65.8
2022-09-28T13:16:16.793Z,66.3
2022-09-28T13:17:04.220Z,65.6
2022-09-28T13:17:51.508Z,65.7
2022-09-28T13:18:38.794Z,66.1
2022-09-28T13:19:26.091Z,65.1
2022-09-28T13:20:13.407Z,65.6
2022-09-28T13:21:00.701Z,65.7
2022-09-28T13:21:47.996Z,65.6
2022-09-28T13:22:35.324Z,65.7
2022-09-28T13:23:22.611Z,66.0
2022-09-28T13:24:31.158Z,65.7
2022-09-28T13:25:07.167Z,66.1
2022-09-28T13:25:54.560Z,66.2
2022-09-28T13:26:41.851Z,66.0
2022-09-28T13:27:29.143Z,65.6
2022-09-28T13:28:16.533Z,65.4
2022-09-28T13:29:03.829Z,65.8
2022-09-28T13:29:51.136Z,65.8
2022-09-28T13:30:38.619Z,65.5
2022-09-28T13:31:27.934Z,65.1
2022-09-28T13:32:18.132Z,65.0
2022-09-28T13:33:05.552Z,64.8
2022-09-28T13:33:52.842Z,64.3
2022-09-28T13:34:40.123Z,63.8
2022-09-28T13:35:27.555Z,63.6
2022-09-28T13:36:14.847Z,63.6
2022-09-28T13:37:02.140Z,62.7
2022-09-28T13:37:49.567Z,62.8
2022-09-28T13:38:37.086Z,63.1
2022-09-28T13:39:24.393Z,63.0
2022-09-28T13:40:11.861Z,63.3
2022-09-28T13:40:59.261Z,63.4
2022-09-28T13:41:46.580Z,63.6
2022-09-28T13:42:34.014Z,64.1
2022-09-28T13:43:21.349Z,64.1
2022-09-28T13:44:08.647Z,64.0
2022-09-28T13:44:56.068Z,64.0
2022-09-28T13:45:43.401Z,64.4
2022-09-28T13:46:30.779Z,64.8
2022-09-28T13:47:20.919Z,64.5
2022-09-28T13:48:08.523Z,64.4
2022-09-28T13:48:55.925Z,64.9
2022-09-28T13:49:43.231Z,65.1
2022-09-28T13:50:30.525Z,65.1
2022-09-28T13:51:17.808Z,66.0
2022-09-28T13:52:05.101Z,65.7
2022-09-28T13:52:52.390Z,66.2
2022-09-28T13:53:39.800Z,66.0
2022-09-28T13:54:27.120Z,66.1
2022-09-28T13:55:14.430Z,66.5
2022-09-28T13:56:01.812Z,65.9
2022-09-28T13:56:49.137Z,65.5
2022-09-28T13:57:36.423Z,66.3
2022-09-28T13:58:23.872Z,66.3
2022-09-28T13:59:11.162Z,66.8
2022-09-28T13:59:58.503Z,66.6
2022-09-28T14:00:45.867Z,66.2
2022-09-28T14:01:33.234Z,66.3
2022-09-28T14:02:21.217Z,66.0
2022-09-28T14:03:08.586Z,66.3
2022-09-28T14:03:55.992Z,66.3
2022-09-28T14:04:43.290Z,66.2
2022-09-28T14:05:30.571Z,66.5
2022-09-28T14:06:18.068Z,66.2
2022-09-28T14:07:05.479Z,67.0
2022-09-28T14:07:55.268Z,67.1
2022-09-28T14:08:44.477Z,67.3
2022-09-28T14:09:31.874Z,67.9
2022-09-28T14:10:19.166Z,68.2
2022-09-28T14:11:06.436Z,67.9
2022-09-28T14:11:53.846Z,68.2
2022-09-28T14:12:41.134Z,68.3
2022-09-28T14:13:28.424Z,68.2
2022-09-28T14:14:15.811Z,67.8
2022-09-28T14:15:03.103Z,68.6
2022-09-28T14:15:50.445Z,68.8
2022-09-28T14:16:37.800Z,68.9
2022-09-28T14:17:25.089Z,68.9
2022-09-28T14:18:12.376Z,68.8
2022-09-28T14:18:59.770Z,69.5
2022-09-28T14:19:47.059Z,69.0
2022-09-28T14:20:34.341Z,67.9
2022-09-28T14:21:21.781Z,67.8
2022-09-28T14:22:09.076Z,67.7
2022-09-28T14:22:56.592Z,68.7
2022-09-28T14:23:43.879Z,67.7
2022-09-28T14:24:31.158Z,67.5
2022-09-28T14:25:18.467Z,67.4
2022-09-28T14:26:05.874Z,67.4
2022-09-28T14:26:53.171Z,67.3
2022-09-28T14:27:40.481Z,66.8
2022-09-28T14:28:27.902Z,67.1
2022-09-28T14:29:15.227Z,66.5
2022-09-28T14:30:02.557Z,66.6
2022-09-28T14:30:50.046Z,66.5
2022-09-28T14:31:37.383Z,66.3
2022-09-28T14:32:24.685Z,65.6
2022-09-28T14:33:12.103Z,65.7
2022-09-28T14:33:59.391Z,64.7
2022-09-28T14:34:46.689Z,64.1
2022-09-28T14:35:34.117Z,63.0
2022-09-28T14:36:21.408Z,62.0
2022-09-28T14:37:08.855Z,61.6
2022-09-28T14:37:56.221Z,61.3
2022-09-28T14:38:43.553Z,61.1
2022-09-28T14:39:30.852Z,61.5
2022-09-28T14:40:18.344Z,61.0
2022-09-28T14:41:05.755Z,61.4
2022-09-28T14:41:53.051Z,61.3
2022-09-28T14:42:40.554Z,61.3
2022-09-28T14:43:27.884Z,61.4
2022-09-28T14:44:15.182Z,61.3
2022-09-28T14:45:06.204Z,61.1
2022-09-28T14:45:54.863Z,61.0
2022-09-28T14:46:42.225Z,61.5
2022-09-28T14:47:29.579Z,61.3
2022-09-28T14:48:16.872Z,61.2
2022-09-28T14:49:04.268Z,61.3
2022-09-28T14:49:51.558Z,61.6
2022-09-28T14:50:38.858Z,61.1
2022-09-28T14:51:26.278Z,61.6
2022-09-28T14:52:13.574Z,61.1
2022-09-28T14:53:00.885Z,61.4
2022-09-28T14:53:48.433Z,60.7
2022-09-28T14:54:35.722Z,61.5
2022-09-28T14:55:23.011Z,60.9
2022-09-28T14:56:10.404Z,60.5
2022-09-28T14:56:57.843Z,61.3
2022-09-28T14:57:45.351Z,60.9
2022-09-28T14:58:32.652Z,61.3
2022-09-28T14:59:19.948Z,61.0
2022-09-28T15:00:07.288Z,60.9
2022-09-28T15:00:54.660Z,60.2
2022-09-28T15:01:41.995Z,60.9
2022-09-28T15:02:29.274Z,60.7
2022-09-28T15:03:16.713Z,60.9
2022-09-28T15:04:04.021Z,60.4
2022-09-28T15:04:51.673Z,60.5
2022-09-28T15:05:39.111Z,60.8
2022-09-28T15:06:26.474Z,60.5
2022-09-28T15:07:13.765Z,60.8
2022-09-28T15:08:01.082Z,60.5